sensor_id;sensor_type;location;lat;lon;timestamp;P1;durP1;ratioP1;P2;durP2;ratioP2
31126;SDS011;17775;57.948;12.514;2023-03-31T00:00:04;0.93;;;0.60;;
31126;SDS011;17775;57.948;12.514;2023-03-31T00:02:37;0.80;;;0.60;;
31126;SDS011;17775;57.948;12.514;2023-03-31T00:05:07;0.82;;;0.50;;
31126;SDS011;17775;57.948;12.514;2023-03-31T00:07:34;1.13;;;0.70;;
31126;SDS011;17775;57.948;12.514;2023-03-31T00:10:03;0.77;;;0.60;;
31126;SDS011;17775;57.948;12.514;2023-03-31T00:12:43;0.90;;;0.70;;
31126;SDS011;17775;57.948;12.514;2023-03-31T00:15:10;0.80;;;0.50;;
31126;SDS011;17775;57.948;12.514;2023-03-31T00:17:37;0.70;;;0.50;;
31126;SDS011;17775;57.948;12.514;2023-03-31T00:20:03;0.63;;;0.50;;
31126;SDS011;17775;57.948;12.514;2023-03-31T00:22:31;0.77;;;0.60;;
31126;SDS011;17775;57.948;12.514;2023-03-31T00:24:57;0.90;;;0.45;;
31126;SDS011;17775;57.948;12.514;2023-03-31T00:27:24;0.80;;;0.45;;
31126;SDS011;17775;57.948;12.514;2023-03-31T00:29:50;1.05;;;0.50;;
31126;SDS011;17775;57.948;12.514;2023-03-31T00:32:18;0.63;;;0.50;;
31126;SDS011;17775;57.948;12.514;2023-03-31T00:34:44;0.90;;;0.60;;
31126;SDS011;17775;57.948;12.514;2023-03-31T00:37:14;0.63;;;0.50;;
31126;SDS011;17775;57.948;12.514;2023-03-31T00:39:41;0.93;;;0.63;;
31126;SDS011;17775;57.948;12.514;2023-03-31T00:42:11;0.90;;;0.68;;
31126;SDS011;17775;57.948;12.514;2023-03-31T00:44:40;1.33;;;0.70;;
31126;SDS011;17775;57.948;12.514;2023-03-31T00:47:25;0.60;;;0.50;;
31126;SDS011;17775;57.948;12.514;2023-03-31T00:49:55;0.88;;;0.57;;
31126;SDS011;17775;57.948;12.514;2023-03-31T00:52:23;0.73;;;0.43;;
31126;SDS011;17775;57.948;12.514;2023-03-31T00:54:55;0.60;;;0.55;;
31126;SDS011;17775;57.948;12.514;2023-03-31T00:57:24;0.80;;;0.50;;
31126;SDS011;17775;57.948;12.514;2023-03-31T00:59:56;0.55;;;0.50;;
31126;SDS011;17775;57.948;12.514;2023-03-31T01:02:24;0.77;;;0.65;;
31126;SDS011;17775;57.948;12.514;2023-03-31T01:04:51;0.52;;;0.50;;
31126;SDS011;17775;57.948;12.514;2023-03-31T01:07:24;0.68;;;0.50;;
31126;SDS011;17775;57.948;12.514;2023-03-31T01:09:52;0.43;;;0.40;;
31126;SDS011;17775;57.948;12.514;2023-03-31T01:12:22;0.80;;;0.60;;
31126;SDS011;17775;57.948;12.514;2023-03-31T01:14:48;0.70;;;0.50;;
31126;SDS011;17775;57.948;12.514;2023-03-31T01:17:17;1.08;;;0.50;;
31126;SDS011;17775;57.948;12.514;2023-03-31T01:25:14;0.70;;;0.50;;
31126;SDS011;17775;57.948;12.514;2023-03-31T01:27:51;0.75;;;0.57;;
31126;SDS011;17775;57.948;12.514;2023-03-31T01:46:01;1.10;;;0.40;;
31126;SDS011;17775;57.948;12.514;2023-03-31T01:51:32;0.85;;;0.60;;
31126;SDS011;17775;57.948;12.514;2023-03-31T01:58:58;0.50;;;0.43;;
31126;SDS011;17775;57.948;12.514;2023-03-31T02:01:28;0.57;;;0.55;;
31126;SDS011;17775;57.948;12.514;2023-03-31T02:06:37;0.73;;;0.50;;
31126;SDS011;17775;57.948;12.514;2023-03-31T02:09:09;0.50;;;0.40;;
31126;SDS011;17775;57.948;12.514;2023-03-31T02:11:37;0.52;;;0.50;;
31126;SDS011;17775;57.948;12.514;2023-03-31T02:14:07;0.70;;;0.45;;
31126;SDS011;17775;57.948;12.514;2023-03-31T02:16:35;0.85;;;0.50;;
31126;SDS011;17775;57.948;12.514;2023-03-31T02:19:07;0.82;;;0.50;;
31126;SDS011;17775;57.948;12.514;2023-03-31T02:21:36;1.45;;;0.60;;
31126;SDS011;17775;57.948;12.514;2023-03-31T02:24:08;0.45;;;0.32;;
31126;SDS011;17775;57.948;12.514;2023-03-31T02:26:39;0.80;;;0.40;;
31126;SDS011;17775;57.948;12.514;2023-03-31T02:31:40;0.52;;;0.50;;
31126;SDS011;17775;57.948;12.514;2023-03-31T02:34:08;0.60;;;0.50;;
31126;SDS011;17775;57.948;12.514;2023-03-31T02:36:35;0.60;;;0.40;;
31126;SDS011;17775;57.948;12.514;2023-03-31T02:39:03;0.85;;;0.43;;
31126;SDS011;17775;57.948;12.514;2023-03-31T02:41:31;0.50;;;0.50;;
31126;SDS011;17775;57.948;12.514;2023-03-31T02:43:58;0.40;;;0.40;;
31126;SDS011;17775;57.948;12.514;2023-03-31T02:46:24;0.88;;;0.50;;
31126;SDS011;17775;57.948;12.514;2023-03-31T02:48:52;0.55;;;0.50;;
31126;SDS011;17775;57.948;12.514;2023-03-31T02:51:29;0.68;;;0.43;;
31126;SDS011;17775;57.948;12.514;2023-03-31T02:59:32;0.40;;;0.40;;
31126;SDS011;17775;57.948;12.514;2023-03-31T03:12:17;0.40;;;0.40;;
31126;SDS011;17775;57.948;12.514;2023-03-31T03:17:21;1.02;;;0.50;;
31126;SDS011;17775;57.948;12.514;2023-03-31T03:19:52;0.40;;;0.40;;
31126;SDS011;17775;57.948;12.514;2023-03-31T03:22:20;0.45;;;0.40;;
31126;SDS011;17775;57.948;12.514;2023-03-31T03:24:46;0.68;;;0.57;;
31126;SDS011;17775;57.948;12.514;2023-03-31T03:27:13;0.70;;;0.40;;
31126;SDS011;17775;57.948;12.514;2023-03-31T03:29:40;0.88;;;0.57;;
31126;SDS011;17775;57.948;12.514;2023-03-31T03:32:07;1.20;;;0.60;;
31126;SDS011;17775;57.948;12.514;2023-03-31T03:34:33;0.90;;;0.50;;
31126;SDS011;17775;57.948;12.514;2023-03-31T03:37:00;0.63;;;0.60;;
31126;SDS011;17775;57.948;12.514;2023-03-31T03:39:26;0.75;;;0.60;;
31126;SDS011;17775;57.948;12.514;2023-03-31T03:41:53;0.38;;;0.38;;
31126;SDS011;17775;57.948;12.514;2023-03-31T03:44:19;1.13;;;0.70;;
31126;SDS011;17775;57.948;12.514;2023-03-31T03:46:46;2.42;;;1.10;;
31126;SDS011;17775;57.948;12.514;2023-03-31T03:49:16;4.95;;;1.33;;
31126;SDS011;17775;57.948;12.514;2023-03-31T03:51:42;7.03;;;1.73;;
31126;SDS011;17775;57.948;12.514;2023-03-31T03:54:09;2.30;;;1.45;;
31126;SDS011;17775;57.948;12.514;2023-03-31T03:56:35;1.85;;;0.80;;
31126;SDS011;17775;57.948;12.514;2023-03-31T03:59:02;3.70;;;1.15;;
31126;SDS011;17775;57.948;12.514;2023-03-31T04:01:28;3.67;;;1.50;;
31126;SDS011;17775;57.948;12.514;2023-03-31T04:03:54;1.98;;;0.90;;
31126;SDS011;17775;57.948;12.514;2023-03-31T04:06:21;1.13;;;0.60;;
31126;SDS011;17775;57.948;12.514;2023-03-31T04:08:47;0.57;;;0.50;;
31126;SDS011;17775;57.948;12.514;2023-03-31T04:11:15;1.13;;;0.75;;
31126;SDS011;17775;57.948;12.514;2023-03-31T04:13:45;1.65;;;0.90;;
31126;SDS011;17775;57.948;12.514;2023-03-31T04:16:12;1.75;;;0.93;;
31126;SDS011;17775;57.948;12.514;2023-03-31T04:18:38;0.93;;;0.60;;
31126;SDS011;17775;57.948;12.514;2023-03-31T04:21:08;1.60;;;0.95;;
31126;SDS011;17775;57.948;12.514;2023-03-31T04:23:38;0.82;;;0.80;;
31126;SDS011;17775;57.948;12.514;2023-03-31T04:26:12;0.68;;;0.50;;
31126;SDS011;17775;57.948;12.514;2023-03-31T04:28:39;0.70;;;0.55;;
31126;SDS011;17775;57.948;12.514;2023-03-31T04:31:08;1.05;;;0.68;;
31126;SDS011;17775;57.948;12.514;2023-03-31T04:33:35;0.60;;;0.50;;
31126;SDS011;17775;57.948;12.514;2023-03-31T04:36:11;0.73;;;0.50;;
31126;SDS011;17775;57.948;12.514;2023-03-31T04:38:44;0.40;;;0.40;;
31126;SDS011;17775;57.948;12.514;2023-03-31T04:41:12;0.90;;;0.52;;
31126;SDS011;17775;57.948;12.514;2023-03-31T04:43:39;0.65;;;0.47;;
31126;SDS011;17775;57.948;12.514;2023-03-31T04:46:08;1.00;;;0.52;;
31126;SDS011;17775;57.948;12.514;2023-03-31T04:48:35;0.90;;;0.55;;
31126;SDS011;17775;57.948;12.514;2023-03-31T04:51:01;0.77;;;0.60;;
31126;SDS011;17775;57.948;12.514;2023-03-31T04:53:28;0.82;;;0.60;;
31126;SDS011;17775;57.948;12.514;2023-03-31T04:55:54;0.88;;;0.60;;
31126;SDS011;17775;57.948;12.514;2023-03-31T04:58:21;1.02;;;0.60;;
31126;SDS011;17775;57.948;12.514;2023-03-31T05:00:48;0.75;;;0.52;;
31126;SDS011;17775;57.948;12.514;2023-03-31T05:03:14;0.68;;;0.50;;
31126;SDS011;17775;57.948;12.514;2023-03-31T05:05:41;1.25;;;0.57;;
31126;SDS011;17775;57.948;12.514;2023-03-31T05:08:07;0.73;;;0.43;;
31126;SDS011;17775;57.948;12.514;2023-03-31T05:10:34;0.82;;;0.50;;
31126;SDS011;17775;57.948;12.514;2023-03-31T05:13:00;0.90;;;0.60;;
31126;SDS011;17775;57.948;12.514;2023-03-31T05:15:28;0.65;;;0.47;;
31126;SDS011;17775;57.948;12.514;2023-03-31T05:17:54;0.70;;;0.47;;
31126;SDS011;17775;57.948;12.514;2023-03-31T05:20:25;0.45;;;0.43;;
31126;SDS011;17775;57.948;12.514;2023-03-31T05:22:51;1.00;;;0.60;;
31126;SDS011;17775;57.948;12.514;2023-03-31T05:25:18;0.95;;;0.60;;
31126;SDS011;17775;57.948;12.514;2023-03-31T05:27:45;0.88;;;0.60;;
31126;SDS011;17775;57.948;12.514;2023-03-31T05:30:17;0.90;;;0.70;;
31126;SDS011;17775;57.948;12.514;2023-03-31T05:32:43;1.15;;;0.65;;
31126;SDS011;17775;57.948;12.514;2023-03-31T05:35:10;1.13;;;0.70;;
31126;SDS011;17775;57.948;12.514;2023-03-31T05:37:36;1.17;;;0.70;;
31126;SDS011;17775;57.948;12.514;2023-03-31T05:40:03;1.23;;;0.80;;
31126;SDS011;17775;57.948;12.514;2023-03-31T05:42:30;0.80;;;0.63;;
31126;SDS011;17775;57.948;12.514;2023-03-31T05:44:57;1.15;;;0.70;;
31126;SDS011;17775;57.948;12.514;2023-03-31T05:47:23;0.95;;;0.52;;
31126;SDS011;17775;57.948;12.514;2023-03-31T05:49:50;1.00;;;0.65;;
31126;SDS011;17775;57.948;12.514;2023-03-31T05:52:17;1.02;;;0.73;;
31126;SDS011;17775;57.948;12.514;2023-03-31T05:54:43;0.98;;;0.70;;
31126;SDS011;17775;57.948;12.514;2023-03-31T05:57:10;0.60;;;0.50;;
31126;SDS011;17775;57.948;12.514;2023-03-31T05:59:39;1.13;;;0.70;;
31126;SDS011;17775;57.948;12.514;2023-03-31T06:02:07;0.88;;;0.68;;
31126;SDS011;17775;57.948;12.514;2023-03-31T06:04:34;1.55;;;0.90;;
31126;SDS011;17775;57.948;12.514;2023-03-31T06:07:00;1.55;;;0.88;;
31126;SDS011;17775;57.948;12.514;2023-03-31T06:09:27;4.53;;;1.92;;
31126;SDS011;17775;57.948;12.514;2023-03-31T06:11:54;1.85;;;1.10;;
31126;SDS011;17775;57.948;12.514;2023-03-31T06:14:21;1.27;;;0.75;;
31126;SDS011;17775;57.948;12.514;2023-03-31T06:16:47;1.35;;;0.77;;
31126;SDS011;17775;57.948;12.514;2023-03-31T06:19:16;2.80;;;0.80;;
31126;SDS011;17775;57.948;12.514;2023-03-31T06:21:43;1.05;;;0.73;;
31126;SDS011;17775;57.948;12.514;2023-03-31T06:24:09;1.13;;;1.02;;
31126;SDS011;17775;57.948;12.514;2023-03-31T06:26:36;1.88;;;1.10;;
31126;SDS011;17775;57.948;12.514;2023-03-31T06:29:03;2.10;;;1.20;;
31126;SDS011;17775;57.948;12.514;2023-03-31T06:31:29;1.85;;;1.00;;
31126;SDS011;17775;57.948;12.514;2023-03-31T06:33:56;1.50;;;0.93;;
31126;SDS011;17775;57.948;12.514;2023-03-31T06:36:22;1.58;;;1.10;;
31126;SDS011;17775;57.948;12.514;2023-03-31T06:38:49;1.33;;;1.00;;
31126;SDS011;17775;57.948;12.514;2023-03-31T06:41:16;1.40;;;1.00;;
31126;SDS011;17775;57.948;12.514;2023-03-31T06:43:43;1.73;;;1.20;;
31126;SDS011;17775;57.948;12.514;2023-03-31T06:46:10;3.15;;;1.10;;
31126;SDS011;17775;57.948;12.514;2023-03-31T06:48:37;4.15;;;1.15;;
31126;SDS011;17775;57.948;12.514;2023-03-31T06:51:04;2.47;;;1.27;;
31126;SDS011;17775;57.948;12.514;2023-03-31T06:53:31;1.67;;;1.05;;
31126;SDS011;17775;57.948;12.514;2023-03-31T06:55:58;1.92;;;1.25;;
31126;SDS011;17775;57.948;12.514;2023-03-31T06:58:25;2.60;;;1.40;;
31126;SDS011;17775;57.948;12.514;2023-03-31T07:00:55;2.08;;;0.90;;
31126;SDS011;17775;57.948;12.514;2023-03-31T07:03:21;1.60;;;1.17;;
31126;SDS011;17775;57.948;12.514;2023-03-31T07:05:50;2.53;;;1.10;;
31126;SDS011;17775;57.948;12.514;2023-03-31T07:08:17;2.03;;;1.20;;
31126;SDS011;17775;57.948;12.514;2023-03-31T07:10:44;1.98;;;1.10;;
31126;SDS011;17775;57.948;12.514;2023-03-31T07:13:13;3.30;;;1.25;;
31126;SDS011;17775;57.948;12.514;2023-03-31T07:15:41;1.83;;;1.20;;
31126;SDS011;17775;57.948;12.514;2023-03-31T07:18:08;2.75;;;1.13;;
31126;SDS011;17775;57.948;12.514;2023-03-31T07:20:34;2.13;;;1.27;;
31126;SDS011;17775;57.948;12.514;2023-03-31T07:23:02;2.35;;;1.00;;
31126;SDS011;17775;57.948;12.514;2023-03-31T07:25:29;1.73;;;0.98;;
31126;SDS011;17775;57.948;12.514;2023-03-31T07:27:55;1.88;;;1.08;;
31126;SDS011;17775;57.948;12.514;2023-03-31T07:30:22;2.08;;;1.10;;
31126;SDS011;17775;57.948;12.514;2023-03-31T07:32:50;1.90;;;1.10;;
31126;SDS011;17775;57.948;12.514;2023-03-31T07:35:16;1.90;;;1.10;;
31126;SDS011;17775;57.948;12.514;2023-03-31T07:37:44;1.00;;;0.90;;
31126;SDS011;17775;57.948;12.514;2023-03-31T07:40:12;2.15;;;1.20;;
31126;SDS011;17775;57.948;12.514;2023-03-31T07:42:41;1.70;;;1.02;;
31126;SDS011;17775;57.948;12.514;2023-03-31T07:45:08;1.40;;;1.02;;
31126;SDS011;17775;57.948;12.514;2023-03-31T07:47:35;2.63;;;1.20;;
31126;SDS011;17775;57.948;12.514;2023-03-31T07:50:02;3.03;;;1.23;;
31126;SDS011;17775;57.948;12.514;2023-03-31T07:52:28;1.13;;;0.85;;
31126;SDS011;17775;57.948;12.514;2023-03-31T07:54:55;1.80;;;1.10;;
31126;SDS011;17775;57.948;12.514;2023-03-31T07:57:21;1.70;;;1.00;;
31126;SDS011;17775;57.948;12.514;2023-03-31T07:59:47;2.08;;;1.27;;
31126;SDS011;17775;57.948;12.514;2023-03-31T08:02:15;2.03;;;1.38;;
31126;SDS011;17775;57.948;12.514;2023-03-31T08:04:42;1.70;;;1.40;;
31126;SDS011;17775;57.948;12.514;2023-03-31T08:07:12;2.40;;;1.30;;
31126;SDS011;17775;57.948;12.514;2023-03-31T08:09:39;1.30;;;1.00;;
31126;SDS011;17775;57.948;12.514;2023-03-31T08:12:06;1.65;;;1.10;;
31126;SDS011;17775;57.948;12.514;2023-03-31T08:14:32;1.33;;;0.95;;
31126;SDS011;17775;57.948;12.514;2023-03-31T08:17:06;1.67;;;1.10;;
31126;SDS011;17775;57.948;12.514;2023-03-31T08:19:32;1.73;;;1.13;;
31126;SDS011;17775;57.948;12.514;2023-03-31T08:21:59;1.63;;;1.00;;
31126;SDS011;17775;57.948;12.514;2023-03-31T08:24:25;1.63;;;1.00;;
31126;SDS011;17775;57.948;12.514;2023-03-31T08:26:52;1.40;;;0.90;;
31126;SDS011;17775;57.948;12.514;2023-03-31T08:29:18;1.63;;;1.10;;
31126;SDS011;17775;57.948;12.514;2023-03-31T08:31:45;2.13;;;1.08;;
31126;SDS011;17775;57.948;12.514;2023-03-31T08:34:11;1.63;;;1.02;;
31126;SDS011;17775;57.948;12.514;2023-03-31T08:36:38;1.95;;;1.08;;
31126;SDS011;17775;57.948;12.514;2023-03-31T08:39:04;2.75;;;1.20;;
31126;SDS011;17775;57.948;12.514;2023-03-31T08:44:07;1.95;;;1.10;;
31126;SDS011;17775;57.948;12.514;2023-03-31T08:46:36;2.30;;;1.30;;
31126;SDS011;17775;57.948;12.514;2023-03-31T08:49:04;1.80;;;1.05;;
31126;SDS011;17775;57.948;12.514;2023-03-31T08:51:41;2.25;;;1.10;;
31126;SDS011;17775;57.948;12.514;2023-03-31T08:54:13;2.70;;;1.05;;
31126;SDS011;17775;57.948;12.514;2023-03-31T08:56:41;2.15;;;1.48;;
31126;SDS011;17775;57.948;12.514;2023-03-31T08:59:43;1.88;;;1.23;;
31126;SDS011;17775;57.948;12.514;2023-03-31T09:09:59;2.03;;;1.27;;
31126;SDS011;17775;57.948;12.514;2023-03-31T09:15:03;2.00;;;1.30;;
31126;SDS011;17775;57.948;12.514;2023-03-31T09:17:32;1.75;;;1.17;;
31126;SDS011;17775;57.948;12.514;2023-03-31T09:22:37;2.20;;;1.40;;
31126;SDS011;17775;57.948;12.514;2023-03-31T09:25:22;2.25;;;1.25;;
31126;SDS011;17775;57.948;12.514;2023-03-31T09:27:52;2.83;;;1.45;;
31126;SDS011;17775;57.948;12.514;2023-03-31T09:30:28;2.00;;;1.30;;
31126;SDS011;17775;57.948;12.514;2023-03-31T09:33:05;2.42;;;1.40;;
31126;SDS011;17775;57.948;12.514;2023-03-31T09:35:35;3.60;;;1.38;;
31126;SDS011;17775;57.948;12.514;2023-03-31T09:38:01;1.90;;;1.30;;
31126;SDS011;17775;57.948;12.514;2023-03-31T09:40:28;1.77;;;1.08;;
31126;SDS011;17775;57.948;12.514;2023-03-31T09:42:59;3.63;;;1.70;;
31126;SDS011;17775;57.948;12.514;2023-03-31T09:48:11;2.00;;;1.50;;
31126;SDS011;17775;57.948;12.514;2023-03-31T09:50:50;1.98;;;1.30;;
31126;SDS011;17775;57.948;12.514;2023-03-31T09:53:21;3.20;;;1.55;;
31126;SDS011;17775;57.948;12.514;2023-03-31T09:55:52;2.45;;;1.42;;
31126;SDS011;17775;57.948;12.514;2023-03-31T09:58:18;2.80;;;1.92;;
31126;SDS011;17775;57.948;12.514;2023-03-31T10:00:55;2.13;;;1.30;;
31126;SDS011;17775;57.948;12.514;2023-03-31T10:03:22;2.33;;;1.40;;
31126;SDS011;17775;57.948;12.514;2023-03-31T10:05:50;4.32;;;1.50;;
31126;SDS011;17775;57.948;12.514;2023-03-31T10:08:28;1.80;;;1.30;;
31126;SDS011;17775;57.948;12.514;2023-03-31T10:10:57;2.10;;;1.60;;
31126;SDS011;17775;57.948;12.514;2023-03-31T10:13:48;1.92;;;1.30;;
31126;SDS011;17775;57.948;12.514;2023-03-31T10:16:22;2.00;;;1.40;;
31126;SDS011;17775;57.948;12.514;2023-03-31T10:18:52;2.10;;;1.75;;
31126;SDS011;17775;57.948;12.514;2023-03-31T10:21:22;2.03;;;1.25;;
31126;SDS011;17775;57.948;12.514;2023-03-31T10:23:50;2.10;;;1.52;;
31126;SDS011;17775;57.948;12.514;2023-03-31T10:26:25;2.22;;;1.52;;
31126;SDS011;17775;57.948;12.514;2023-03-31T10:28:52;2.58;;;1.60;;
31126;SDS011;17775;57.948;12.514;2023-03-31T10:31:33;3.28;;;1.83;;
31126;SDS011;17775;57.948;12.514;2023-03-31T10:34:05;2.55;;;1.55;;
31126;SDS011;17775;57.948;12.514;2023-03-31T10:36:32;3.10;;;1.40;;
31126;SDS011;17775;57.948;12.514;2023-03-31T10:39:03;2.90;;;1.73;;
31126;SDS011;17775;57.948;12.514;2023-03-31T10:41:30;2.22;;;1.60;;
31126;SDS011;17775;57.948;12.514;2023-03-31T10:43:57;2.20;;;1.42;;
31126;SDS011;17775;57.948;12.514;2023-03-31T10:46:40;2.28;;;1.50;;
31126;SDS011;17775;57.948;12.514;2023-03-31T10:49:13;3.03;;;1.73;;
31126;SDS011;17775;57.948;12.514;2023-03-31T10:51:47;2.45;;;1.52;;
31126;SDS011;17775;57.948;12.514;2023-03-31T10:54:13;3.20;;;1.75;;
31126;SDS011;17775;57.948;12.514;2023-03-31T10:56:56;3.30;;;1.70;;
31126;SDS011;17775;57.948;12.514;2023-03-31T11:09:43;3.75;;;2.25;;
31126;SDS011;17775;57.948;12.514;2023-03-31T11:14:58;3.08;;;2.08;;
31126;SDS011;17775;57.948;12.514;2023-03-31T11:18:05;2.83;;;1.88;;
31126;SDS011;17775;57.948;12.514;2023-03-31T11:30:18;3.35;;;2.03;;
31126;SDS011;17775;57.948;12.514;2023-03-31T11:45:19;4.05;;;2.30;;
31126;SDS011;17775;57.948;12.514;2023-03-31T11:47:48;3.35;;;2.17;;
31126;SDS011;17775;57.948;12.514;2023-03-31T11:50:20;2.45;;;1.70;;
31126;SDS011;17775;57.948;12.514;2023-03-31T11:55:24;3.10;;;1.77;;
31126;SDS011;17775;57.948;12.514;2023-03-31T12:00:20;3.50;;;2.05;;
31126;SDS011;17775;57.948;12.514;2023-03-31T12:02:50;3.20;;;2.22;;
31126;SDS011;17775;57.948;12.514;2023-03-31T12:05:19;3.95;;;1.77;;
31126;SDS011;17775;57.948;12.514;2023-03-31T12:10:53;3.85;;;2.00;;
31126;SDS011;17775;57.948;12.514;2023-03-31T12:21:27;2.53;;;2.00;;
31126;SDS011;17775;57.948;12.514;2023-03-31T12:23:54;2.70;;;1.90;;
31126;SDS011;17775;57.948;12.514;2023-03-31T12:28:48;3.35;;;2.05;;
31126;SDS011;17775;57.948;12.514;2023-03-31T12:31:18;4.13;;;2.45;;
31126;SDS011;17775;57.948;12.514;2023-03-31T12:33:50;3.53;;;2.50;;
31126;SDS011;17775;57.948;12.514;2023-03-31T12:39:15;3.25;;;2.20;;
31126;SDS011;17775;57.948;12.514;2023-03-31T12:57:45;5.28;;;3.45;;
31126;SDS011;17775;57.948;12.514;2023-03-31T13:02:42;5.22;;;3.33;;
31126;SDS011;17775;57.948;12.514;2023-03-31T13:07:54;3.83;;;2.60;;
31126;SDS011;17775;57.948;12.514;2023-03-31T13:10:25;8.75;;;4.30;;
31126;SDS011;17775;57.948;12.514;2023-03-31T13:15:21;4.82;;;3.03;;
31126;SDS011;17775;57.948;12.514;2023-03-31T13:17:54;5.80;;;2.80;;
31126;SDS011;17775;57.948;12.514;2023-03-31T13:22:53;8.70;;;4.33;;
31126;SDS011;17775;57.948;12.514;2023-03-31T13:25:38;4.32;;;2.58;;
31126;SDS011;17775;57.948;12.514;2023-03-31T13:28:17;5.30;;;3.25;;
31126;SDS011;17775;57.948;12.514;2023-03-31T13:30:44;4.63;;;2.80;;
31126;SDS011;17775;57.948;12.514;2023-03-31T13:41:29;4.18;;;2.90;;
31126;SDS011;17775;57.948;12.514;2023-03-31T13:52:19;4.30;;;2.67;;
31126;SDS011;17775;57.948;12.514;2023-03-31T13:59:55;4.32;;;2.65;;
31126;SDS011;17775;57.948;12.514;2023-03-31T14:08:01;4.35;;;3.08;;
31126;SDS011;17775;57.948;12.514;2023-03-31T14:10:34;4.65;;;2.35;;
31126;SDS011;17775;57.948;12.514;2023-03-31T14:15:27;4.63;;;2.65;;
31126;SDS011;17775;57.948;12.514;2023-03-31T14:17:55;4.95;;;2.55;;
31126;SDS011;17775;57.948;12.514;2023-03-31T14:23:00;4.50;;;2.40;;
31126;SDS011;17775;57.948;12.514;2023-03-31T14:30:48;3.88;;;2.60;;
31126;SDS011;17775;57.948;12.514;2023-03-31T14:35:58;3.08;;;2.00;;
31126;SDS011;17775;57.948;12.514;2023-03-31T14:38:27;3.33;;;2.40;;
31126;SDS011;17775;57.948;12.514;2023-03-31T14:40:55;4.18;;;2.60;;
31126;SDS011;17775;57.948;12.514;2023-03-31T14:43:24;3.95;;;2.58;;
31126;SDS011;17775;57.948;12.514;2023-03-31T14:45:55;3.72;;;2.40;;
31126;SDS011;17775;57.948;12.514;2023-03-31T14:48:25;3.88;;;2.53;;
31126;SDS011;17775;57.948;12.514;2023-03-31T14:50:55;4.00;;;2.45;;
31126;SDS011;17775;57.948;12.514;2023-03-31T14:53:22;3.78;;;2.40;;
31126;SDS011;17775;57.948;12.514;2023-03-31T14:55:49;4.82;;;2.47;;
31126;SDS011;17775;57.948;12.514;2023-03-31T14:58:31;4.63;;;2.28;;
31126;SDS011;17775;57.948;12.514;2023-03-31T15:01:03;3.35;;;2.58;;
31126;SDS011;17775;57.948;12.514;2023-03-31T15:03:30;4.70;;;2.63;;
31126;SDS011;17775;57.948;12.514;2023-03-31T15:05:57;3.17;;;2.33;;
31126;SDS011;17775;57.948;12.514;2023-03-31T15:08:24;3.78;;;2.70;;
31126;SDS011;17775;57.948;12.514;2023-03-31T15:10:55;4.03;;;2.80;;
31126;SDS011;17775;57.948;12.514;2023-03-31T15:13:40;3.83;;;2.55;;
31126;SDS011;17775;57.948;12.514;2023-03-31T15:16:25;3.67;;;2.40;;
31126;SDS011;17775;57.948;12.514;2023-03-31T15:18:54;3.30;;;2.22;;
31126;SDS011;17775;57.948;12.514;2023-03-31T15:21:25;3.60;;;2.38;;
31126;SDS011;17775;57.948;12.514;2023-03-31T15:23:54;4.72;;;2.53;;
31126;SDS011;17775;57.948;12.514;2023-03-31T15:26:23;4.25;;;2.58;;
31126;SDS011;17775;57.948;12.514;2023-03-31T15:29:12;3.58;;;2.35;;
31126;SDS011;17775;57.948;12.514;2023-03-31T15:31:41;3.40;;;2.22;;
31126;SDS011;17775;57.948;12.514;2023-03-31T15:34:14;5.15;;;2.90;;
31126;SDS011;17775;57.948;12.514;2023-03-31T15:36:42;4.65;;;2.67;;
31126;SDS011;17775;57.948;12.514;2023-03-31T15:39:09;3.67;;;2.55;;
31126;SDS011;17775;57.948;12.514;2023-03-31T15:41:36;4.18;;;3.10;;
31126;SDS011;17775;57.948;12.514;2023-03-31T15:44:07;3.67;;;2.53;;
31126;SDS011;17775;57.948;12.514;2023-03-31T15:46:59;5.18;;;3.00;;
31126;SDS011;17775;57.948;12.514;2023-03-31T15:49:26;5.15;;;3.28;;
31126;SDS011;17775;57.948;12.514;2023-03-31T15:51:53;5.80;;;2.92;;
31126;SDS011;17775;57.948;12.514;2023-03-31T15:56:52;3.78;;;2.22;;
31126;SDS011;17775;57.948;12.514;2023-03-31T16:01:53;4.72;;;2.90;;
31126;SDS011;17775;57.948;12.514;2023-03-31T16:04:28;4.82;;;2.95;;
31126;SDS011;17775;57.948;12.514;2023-03-31T16:11:52;3.42;;;2.55;;
31126;SDS011;17775;57.948;12.514;2023-03-31T16:16:53;4.07;;;2.60;;
31126;SDS011;17775;57.948;12.514;2023-03-31T16:19:23;6.45;;;3.28;;
31126;SDS011;17775;57.948;12.514;2023-03-31T16:21:50;4.75;;;2.42;;
31126;SDS011;17775;57.948;12.514;2023-03-31T16:24:20;4.47;;;2.55;;
31126;SDS011;17775;57.948;12.514;2023-03-31T16:26:47;3.20;;;2.50;;
31126;SDS011;17775;57.948;12.514;2023-03-31T16:29:20;4.10;;;2.72;;
31126;SDS011;17775;57.948;12.514;2023-03-31T16:31:47;4.97;;;2.67;;
31126;SDS011;17775;57.948;12.514;2023-03-31T16:34:13;3.58;;;2.65;;
31126;SDS011;17775;57.948;12.514;2023-03-31T16:36:40;4.05;;;2.60;;
31126;SDS011;17775;57.948;12.514;2023-03-31T16:39:08;4.72;;;3.10;;
31126;SDS011;17775;57.948;12.514;2023-03-31T16:41:35;5.10;;;3.05;;
31126;SDS011;17775;57.948;12.514;2023-03-31T16:44:03;4.00;;;2.60;;
31126;SDS011;17775;57.948;12.514;2023-03-31T16:46:31;4.22;;;2.72;;
31126;SDS011;17775;57.948;12.514;2023-03-31T16:48:58;4.35;;;2.38;;
31126;SDS011;17775;57.948;12.514;2023-03-31T16:51:24;3.83;;;2.53;;
31126;SDS011;17775;57.948;12.514;2023-03-31T16:53:51;4.07;;;2.58;;
31126;SDS011;17775;57.948;12.514;2023-03-31T16:56:18;4.28;;;2.60;;
31126;SDS011;17775;57.948;12.514;2023-03-31T16:58:44;4.28;;;2.90;;
31126;SDS011;17775;57.948;12.514;2023-03-31T17:01:10;4.53;;;2.90;;
31126;SDS011;17775;57.948;12.514;2023-03-31T17:03:37;4.22;;;2.92;;
31126;SDS011;17775;57.948;12.514;2023-03-31T17:06:10;4.40;;;3.00;;
31126;SDS011;17775;57.948;12.514;2023-03-31T17:08:38;5.40;;;2.90;;
31126;SDS011;17775;57.948;12.514;2023-03-31T17:11:06;4.20;;;2.58;;
31126;SDS011;17775;57.948;12.514;2023-03-31T17:13:33;4.72;;;2.60;;
31126;SDS011;17775;57.948;12.514;2023-03-31T17:16:03;6.60;;;3.13;;
31126;SDS011;17775;57.948;12.514;2023-03-31T17:18:47;5.63;;;2.92;;
31126;SDS011;17775;57.948;12.514;2023-03-31T17:21:14;4.75;;;2.75;;
31126;SDS011;17775;57.948;12.514;2023-03-31T17:23:41;4.10;;;2.58;;
31126;SDS011;17775;57.948;12.514;2023-03-31T17:26:08;7.03;;;3.17;;
31126;SDS011;17775;57.948;12.514;2023-03-31T17:28:37;5.10;;;3.10;;
31126;SDS011;17775;57.948;12.514;2023-03-31T17:31:13;4.90;;;3.45;;
31126;SDS011;17775;57.948;12.514;2023-03-31T17:33:40;5.30;;;3.00;;
31126;SDS011;17775;57.948;12.514;2023-03-31T17:36:08;5.63;;;3.03;;
31126;SDS011;17775;57.948;12.514;2023-03-31T17:38:35;4.05;;;2.75;;
31126;SDS011;17775;57.948;12.514;2023-03-31T17:41:04;4.45;;;3.00;;
31126;SDS011;17775;57.948;12.514;2023-03-31T17:43:31;6.97;;;3.38;;
31126;SDS011;17775;57.948;12.514;2023-03-31T17:45:59;5.30;;;2.97;;
31126;SDS011;17775;57.948;12.514;2023-03-31T17:48:26;6.30;;;3.30;;
31126;SDS011;17775;57.948;12.514;2023-03-31T17:50:53;4.68;;;2.75;;
31126;SDS011;17775;57.948;12.514;2023-03-31T17:53:19;6.28;;;3.10;;
31126;SDS011;17775;57.948;12.514;2023-03-31T17:55:46;4.60;;;2.97;;
31126;SDS011;17775;57.948;12.514;2023-03-31T17:58:13;4.30;;;2.90;;
31126;SDS011;17775;57.948;12.514;2023-03-31T18:00:39;5.63;;;3.65;;
31126;SDS011;17775;57.948;12.514;2023-03-31T18:03:06;5.28;;;3.05;;
31126;SDS011;17775;57.948;12.514;2023-03-31T18:05:34;4.82;;;3.22;;
31126;SDS011;17775;57.948;12.514;2023-03-31T18:08:00;6.30;;;3.75;;
31126;SDS011;17775;57.948;12.514;2023-03-31T18:10:30;5.85;;;3.50;;